createdAt,value
2022-09-21T00:04:18.463Z,5.35
2022-09-21T00:10:30.298Z,4.17
2022-09-21T00:16:45.170Z,4.40
2022-09-21T00:22:54.782Z,3.80
2022-09-21T00:29:07.150Z,4.30
2022-09-21T00:35:20.212Z,4.00
2022-09-21T00:41:34.026Z,4.35
2022-09-21T00:47:47.196Z,4.05
2022-09-21T00:54:00.722Z,4.90
2022-09-21T01:00:16.228Z,4.00
2022-09-21T01:06:25.653Z,3.85
2022-09-21T01:12:43.254Z,4.30
2022-09-21T01:18:56.896Z,4.65
2022-09-21T01:25:12.887Z,4.28
2022-09-21T01:31:25.585Z,4.00
2022-09-21T01:37:37.983Z,4.30
2022-09-21T01:43:50.222Z,4.05
2022-09-21T01:50:00.277Z,4.58
2022-09-21T01:56:10.231Z,3.83
2022-09-21T02:02:25.863Z,5.47
2022-09-21T02:08:37.453Z,4.65
2022-09-21T02:14:50.894Z,5.30
2022-09-21T02:21:07.137Z,5.90
2022-09-21T02:27:24.003Z,4.12
2022-09-21T02:33:38.087Z,5.15
2022-09-21T02:39:52.496Z,4.95
2022-09-21T02:46:04.957Z,4.33
2022-09-21T02:52:18.746Z,6.62
2022-09-21T02:58:31.838Z,5.58
2022-09-21T03:04:43.613Z,5.25
2022-09-21T03:10:53.720Z,5.72
2022-09-21T03:17:06.755Z,4.30
2022-09-21T03:23:18.716Z,5.05
2022-09-21T03:29:31.253Z,5.75
2022-09-21T03:35:43.584Z,5.62
2022-09-21T03:41:55.975Z,5.28
2022-09-21T03:48:09.081Z,5.62
2022-09-21T03:54:21.975Z,4.65
2022-09-21T04:00:33.152Z,5.17
2022-09-21T04:06:46.236Z,5.03
2022-09-21T04:13:00.577Z,4.20
2022-09-21T04:19:16.235Z,4.33
2022-09-21T04:25:28.002Z,4.25
2022-09-21T04:31:38.951Z,6.08
2022-09-21T04:37:51.720Z,4.70
2022-09-21T04:44:02.580Z,4.78
2022-09-21T04:50:14.117Z,5.67
2022-09-21T04:56:25.520Z,7.05
2022-09-21T05:02:37.310Z,4.72
2022-09-21T05:09:05.048Z,4.55
2022-09-21T05:15:21.181Z,5.95
2022-09-21T05:27:37.846Z,5.60
2022-09-21T05:33:49.897Z,4.62
2022-09-21T05:40:05.340Z,4.90
2022-09-21T05:46:20.602Z,5.43
2022-09-21T05:52:32.983Z,5.05
2022-09-21T05:58:48.063Z,6.87
2022-09-21T06:05:00.749Z,5.03
2022-09-21T06:11:13.436Z,5.78
2022-09-21T06:17:22.811Z,5.17
2022-09-21T06:23:35.474Z,5.85
2022-09-21T06:29:50.001Z,4.97
2022-09-21T06:36:02.932Z,5.92
2022-09-21T06:42:14.073Z,5.25
2022-09-21T06:48:25.240Z,4.85
2022-09-21T06:54:37.852Z,5.53
2022-09-21T07:00:50.301Z,5.10
2022-09-21T07:07:04.913Z,6.85
2022-09-21T07:13:12.326Z,6.30
2022-09-21T07:19:26.671Z,4.67
2022-09-21T07:25:35.105Z,6.72
2022-09-21T07:31:47.699Z,5.60
2022-09-21T07:38:01.757Z,6.92
2022-09-21T07:44:13.017Z,5.83
2022-09-21T07:50:26.052Z,5.10
2022-09-21T07:56:38.504Z,5.60
2022-09-21T08:02:50.259Z,5.22
2022-09-21T08:08:59.192Z,5.67
2022-09-21T08:15:37.046Z,5.35
2022-09-21T08:21:32.309Z,5.95
2022-09-21T08:27:44.848Z,5.50
2022-09-21T08:33:58.732Z,6.05
2022-09-21T08:40:09.054Z,5.75
2022-09-21T08:46:23.873Z,5.70
2022-09-21T08:52:37.287Z,6.75
2022-09-21T08:58:50.550Z,5.97
2022-09-21T09:05:03.740Z,8.05
2022-09-21T09:11:22.587Z,6.80
2022-09-21T09:17:39.317Z,7.30
2022-09-21T09:23:52.058Z,8.05
2022-09-21T09:30:05.978Z,7.12
2022-09-21T09:36:30.102Z,7.70
2022-09-21T09:42:54.053Z,7.45
2022-09-21T09:49:20.274Z,6.15
2022-09-21T09:55:33.591Z,6.65
2022-09-21T10:01:43.906Z,7.00
2022-09-21T10:07:56.988Z,6.72
2022-09-21T10:14:12.052Z,7.70
2022-09-21T10:20:25.262Z,8.35
2022-09-21T10:26:41.670Z,6.33
2022-09-21T10:32:59.198Z,7.60
2022-09-21T10:45:59.796Z,7.73
2022-09-21T10:52:12.742Z,7.03
2022-09-21T10:58:21.375Z,7.28
2022-09-21T11:04:51.783Z,6.80
2022-09-21T11:11:07.900Z,7.22
2022-09-21T11:17:21.288Z,6.87
2022-09-21T11:23:42.482Z,7.65
2022-09-21T11:30:00.070Z,6.30
2022-09-21T11:36:14.750Z,7.97
2022-09-21T11:42:32.380Z,8.20
2022-09-21T11:49:07.816Z,6.62
2022-09-21T11:55:38.986Z,7.53
2022-09-21T12:02:13.441Z,6.97
2022-09-21T12:09:05.432Z,6.72
2022-09-21T12:15:20.308Z,8.00
2022-09-21T12:21:34.445Z,6.83
2022-09-21T12:27:47.231Z,9.25
2022-09-21T12:33:57.197Z,7.85
2022-09-21T12:40:12.538Z,7.97
2022-09-21T12:46:27.223Z,9.25
2022-09-21T12:52:38.879Z,9.28
2022-09-21T12:59:03.480Z,8.98
2022-09-21T13:05:18.974Z,8.58
2022-09-21T13:11:32.145Z,9.17
2022-09-21T13:17:43.439Z,8.58
2022-09-21T13:24:01.596Z,11.25
2022-09-21T13:30:39.708Z,9.50
2022-09-21T13:36:50.840Z,9.08
2022-09-21T13:43:04.079Z,8.85
2022-09-21T13:49:24.166Z,9.13
2022-09-21T13:55:40.685Z,8.63
2022-09-21T14:01:54.810Z,9.60
2022-09-21T14:08:06.702Z,7.72
2022-09-21T14:14:25.149Z,8.68
2022-09-21T14:20:39.532Z,9.03
2022-09-21T14:27:03.426Z,8.90
2022-09-21T14:33:33.820Z,10.03
2022-09-21T14:39:45.438Z,8.83
2022-09-21T14:46:14.606Z,9.80
2022-09-21T14:52:32.572Z,11.28
2022-09-21T14:58:49.899Z,9.08
2022-09-21T15:05:23.272Z,9.15
2022-09-21T15:11:38.821Z,8.28
2022-09-21T15:18:04.224Z,8.85
2022-09-21T15:24:27.442Z,10.23
2022-09-21T15:30:39.810Z,10.20
2022-09-21T15:36:54.824Z,9.33
2022-09-21T15:43:07.164Z,10.40
2022-09-21T15:49:23.908Z,7.67
2022-09-21T15:55:35.347Z,8.08
2022-09-21T16:01:50.784Z,8.63
2022-09-21T16:08:17.898Z,8.78
2022-09-21T16:14:47.528Z,9.30
2022-09-21T16:21:00.288Z,7.80
2022-09-21T16:27:18.372Z,8.43
2022-09-21T16:33:46.331Z,8.68
2022-09-21T16:39:58.889Z,9.63
2022-09-21T16:46:09.824Z,8.13
2022-09-21T16:52:24.102Z,8.68
2022-09-21T16:58:38.090Z,7.58
2022-09-21T17:04:48.653Z,9.30
2022-09-21T17:11:03.863Z,8.18
2022-09-21T17:17:20.401Z,8.20
2022-09-21T17:23:31.587Z,8.70
2022-09-21T17:29:45.594Z,6.08
2022-09-21T17:35:55.988Z,8.60
2022-09-21T17:42:14.093Z,7.62
2022-09-21T17:48:30.643Z,6.53
2022-09-21T17:54:42.049Z,7.08
2022-09-21T18:00:59.409Z,5.90
2022-09-21T18:07:16.994Z,5.67
2022-09-21T18:13:37.501Z,4.80
2022-09-21T18:19:53.471Z,3.58
2022-09-21T18:32:20.923Z,2.87
2022-09-21T18:38:36.969Z,4.17
2022-09-21T18:51:03.442Z,2.90
2022-09-21T18:57:18.957Z,3.25
2022-09-21T19:03:35.116Z,3.45
2022-09-21T19:09:54.938Z,1.72
2022-09-21T19:16:10.735Z,2.15
2022-09-21T19:22:23.087Z,2.08
2022-09-21T19:28:41.648Z,1.77
2022-09-21T19:34:55.892Z,2.30
2022-09-21T19:41:11.526Z,2.40
2022-09-21T19:47:25.966Z,1.62
2022-09-21T19:53:53.197Z,2.35
2022-09-21T20:00:07.317Z,1.55
2022-09-21T20:06:25.136Z,1.62
2022-09-21T20:12:37.912Z,1.90
2022-09-21T20:18:54.940Z,1.62
2022-09-21T20:25:08.325Z,2.12
2022-09-21T20:31:24.457Z,2.70
2022-09-21T20:37:33.517Z,2.75
2022-09-21T20:43:45.488Z,2.12
2022-09-21T20:49:55.609Z,1.42
2022-09-21T20:56:10.737Z,1.40
2022-09-21T21:02:24.348Z,1.13
2022-09-21T21:08:38.702Z,2.35
2022-09-21T21:14:54.775Z,1.60
2022-09-21T21:27:18.546Z,1.60
2022-09-21T21:33:32.478Z,1.57
2022-09-21T21:39:47.488Z,2.58
2022-09-21T21:46:03.917Z,1.50
2022-09-21T21:52:17.931Z,2.00
2022-09-21T21:58:29.520Z,1.95
2022-09-21T22:04:41.140Z,2.52
2022-09-21T22:11:00.890Z,2.12
2022-09-21T22:17:15.930Z,2.75
2022-09-21T22:23:29.865Z,2.02
2022-09-21T22:29:43.174Z,1.98
2022-09-21T22:35:53.221Z,2.10
2022-09-21T22:42:06.939Z,2.80
2022-09-21T22:48:19.661Z,2.58
2022-09-21T22:54:32.010Z,3.27
2022-09-21T23:00:46.884Z,2.60
2022-09-21T23:06:59.834Z,3.47
2022-09-21T23:13:13.035Z,4.42
2022-09-21T23:19:29.435Z,4.75
2022-09-21T23:25:42.480Z,4.50
2022-09-21T23:31:55.635Z,4.25
2022-09-21T23:38:09.231Z,4.12
2022-09-21T23:44:22.013Z,4.90
2022-09-21T23:50:31.239Z,4.65
2022-09-21T23:56:42.070Z,4.75
